Time;durP1;ratioP1;P1;durP2;ratioP2;P2;SDS_P1;SDS_P2;PMS_P1;PMS_P2;Temp;Humidity;BMP_temperature;BMP_pressure;BME280_temperature;BME280_humidity;BME280_pressure;Samples;Min_cycle;Max_cycle;Signal;HPM_P1;HPM_P2
2023/08/16 00:02:03;;;;;;;4.93;1.60;;;15.60;99.90;;;;;;5047892;28;20036;-54
2023/08/16 00:04:29;;;;;;;1.70;1.40;;;15.60;99.90;;;;;;5047641;28;20506;-51
2023/08/16 00:06:54;;;;;;;4.55;1.15;;;15.60;99.90;;;;;;5047790;28;20064;-53
2023/08/16 00:09:20;;;;;;;1.95;1.20;;;15.60;99.90;;;;;;5044563;28;20103;-50
2023/08/16 00:11:47;;;;;;;2.05;1.80;;;15.50;99.90;;;;;;5046642;28;20036;-54
2023/08/16 00:14:12;;;;;;;3.05;1.67;;;15.50;99.90;;;;;;5046208;28;20099;-55
2023/08/16 00:16:38;;;;;;;6.05;1.92;;;15.50;99.90;;;;;;5045940;28;20033;-50
2023/08/16 00:19:04;;;;;;;2.03;1.40;;;15.50;99.90;;;;;;5027379;28;20133;-53
2023/08/16 00:21:30;;;;;;;2.80;1.40;;;15.50;99.90;;;;;;5047581;28;20052;-56
2023/08/16 00:23:55;;;;;;;3.95;1.40;;;15.50;99.90;;;;;;5046841;28;20036;-51
2023/08/16 00:26:21;;;;;;;1.80;0.70;;;15.60;99.90;;;;;;5049189;28;20032;-52
2023/08/16 00:28:48;;;;;;;5.15;1.00;;;15.50;99.90;;;;;;5032448;28;20094;-56
2023/08/16 00:31:14;;;;;;;0.75;0.70;;;15.50;99.90;;;;;;5051427;28;20076;-53
2023/08/16 00:33:40;;;;;;;1.38;1.27;;;15.40;99.90;;;;;;5050347;28;20045;-50
2023/08/16 00:36:07;;;;;;;3.78;1.52;;;15.30;99.90;;;;;;5051049;28;20117;-53
2023/08/16 00:38:33;;;;;;;2.03;1.77;;;15.30;99.90;;;;;;5050249;28;20250;-55
2023/08/16 00:40:58;;;;;;;2.05;1.80;;;15.40;99.90;;;;;;5050888;28;20035;-53
2023/08/16 00:43:24;;;;;;;2.72;2.25;;;15.40;99.90;;;;;;5051092;28;20056;-50
2023/08/16 00:45:51;;;;;;;3.05;2.17;;;15.40;99.90;;;;;;5051406;28;20059;-50
2023/08/16 00:48:17;;;;;;;;;;;15.40;99.90;;;;;;5045656;28;20366;-50
2023/08/16 00:50:43;;;;;;;3.47;1.77;;;15.40;99.90;;;;;;5050275;28;19920;-51
2023/08/16 00:53:09;;;;;;;2.05;1.95;;;15.40;99.90;;;;;;5032218;28;20461;-51
2023/08/16 00:55:35;;;;;;;;;;;15.40;99.90;;;;;;5051528;28;20041;-50
2023/08/16 00:58:01;;;;;;;4.68;0.63;;;15.40;99.90;;;;;;5046262;28;20240;-50
2023/08/16 01:00:27;;;;;;;3.08;0.60;;;15.20;99.90;;;;;;5032775;28;20056;-50
2023/08/16 01:02:53;;;;;;;0.60;0.60;;;15.10;99.90;;;;;;5050323;28;20293;-50
2023/08/16 01:05:19;;;;;;;1.05;0.95;;;15.00;99.90;;;;;;5047372;28;20025;-51
2023/08/16 01:07:45;;;;;;;3.20;0.90;;;15.00;99.90;;;;;;5050013;28;20037;-50
2023/08/16 01:10:11;;;;;;;2.15;0.45;;;14.90;99.90;;;;;;5049996;28;20037;-52
2023/08/16 01:12:49;;;;;;;1.95;0.30;;;14.90;99.90;;;;;;5048374;28;20048;-53
2023/08/16 01:15:38;;;;;;;0.45;0.35;;;14.80;99.90;;;;;;5049875;28;20427;-51
2023/08/16 01:18:04;;;;;;;0.20;0.20;;;14.80;99.90;;;;;;5048403;28;20359;-51
2023/08/16 01:20:31;;;;;;;0.80;0.30;;;14.80;99.90;;;;;;5032528;28;20112;-50
2023/08/16 01:23:05;;;;;;;4.32;2.65;;;14.80;99.90;;;;;;5049980;28;20482;-50
2023/08/16 01:25:35;;;;;;;3.00;2.70;;;14.90;99.90;;;;;;5050410;28;20248;-50
2023/08/16 01:28:02;;;;;;;3.60;2.55;;;14.90;99.90;;;;;;5047079;28;20045;-50
2023/08/16 01:30:29;;;;;;;4.78;2.63;;;14.90;99.90;;;;;;5048387;28;20032;-53
2023/08/16 01:32:55;;;;;;;4.28;1.90;;;15.00;99.90;;;;;;5048793;28;20507;-50
2023/08/16 01:35:20;;;;;;;4.07;1.98;;;15.00;99.90;;;;;;5047490;28;20040;-52
2023/08/16 01:37:47;;;;;;;2.20;1.52;;;15.00;99.90;;;;;;5047131;28;20421;-51
2023/08/16 01:40:13;;;;;;;2.60;2.40;;;15.00;99.90;;;;;;5047303;28;20080;-50
2023/08/16 01:42:46;;;;;;;3.08;1.52;;;15.00;99.90;;;;;;5048676;28;20029;-50
2023/08/16 01:45:15;;;;;;;6.20;2.50;;;15.10;99.90;;;;;;5045146;28;20037;-53
2023/08/16 01:47:42;;;;;;;2.58;1.20;;;15.10;99.90;;;;;;5031819;28;20040;-51
2023/08/16 01:50:08;;;;;;;3.03;0.63;;;15.00;99.90;;;;;;5044170;28;20094;-51
2023/08/16 01:52:34;;;;;;;;;;;14.80;99.90;;;;;;5049999;28;20051;-50
2023/08/16 01:55:00;;;;;;;3.90;2.38;;;14.80;99.90;;;;;;5048456;28;19935;-53
2023/08/16 01:57:25;;;;;;;2.42;2.22;;;14.80;99.90;;;;;;5044462;28;20392;-54
2023/08/16 01:59:51;;;;;;;4.72;2.30;;;14.70;99.90;;;;;;5043503;28;20037;-50
2023/08/16 02:02:17;;;;;;;3.70;2.33;;;14.60;99.90;;;;;;5049776;28;20033;-53
2023/08/16 02:04:42;;;;;;;2.60;2.40;;;14.70;99.90;;;;;;5049323;28;20116;-52
2023/08/16 02:07:08;;;;;;;1.92;1.38;;;14.70;99.90;;;;;;5049096;28;20457;-53
2023/08/16 02:09:34;;;;;;;3.13;1.50;;;14.60;99.90;;;;;;5048976;28;20056;-55
2023/08/16 02:11:59;;;;;;;3.92;1.50;;;14.60;99.90;;;;;;5048881;28;20485;-54
2023/08/16 02:14:25;;;;;;;3.25;1.65;;;14.60;99.90;;;;;;5048907;28;20116;-56
2023/08/16 02:16:50;;;;;;;1.92;1.58;;;14.50;99.90;;;;;;5031340;28;20049;-54
2023/08/16 02:19:16;;;;;;;2.10;1.33;;;14.50;99.90;;;;;;5046407;28;20072;-50
2023/08/16 02:21:42;;;;;;;1.40;1.13;;;14.50;99.90;;;;;;5049514;28;20564;-54
2023/08/16 02:24:07;;;;;;;3.45;0.65;;;14.50;99.90;;;;;;5049092;28;20021;-54
2023/08/16 02:26:33;;;;;;;1.02;0.28;;;14.40;99.90;;;;;;5049100;28;20119;-52
2023/08/16 02:28:58;;;;;;;17.95;0.70;;;14.30;99.90;;;;;;5047285;28;20127;-55
2023/08/16 02:31:24;;;;;;;2.35;0.30;;;14.20;99.90;;;;;;5049403;28;20033;-53
2023/08/16 02:33:50;;;;;;;0.82;0.30;;;14.00;99.90;;;;;;5030668;28;20076;-53
2023/08/16 02:36:16;;;;;;;1.92;0.85;;;13.90;99.90;;;;;;5049469;28;20033;-51
2023/08/16 02:38:41;;;;;;;1.00;0.50;;;14.00;99.90;;;;;;5047783;28;20037;-53
2023/08/16 02:41:07;;;;;;;0.50;0.40;;;14.00;99.90;;;;;;5049035;28;20108;-52
2023/08/16 02:43:32;;;;;;;0.38;0.38;;;14.00;99.90;;;;;;5048025;28;20033;-56
2023/08/16 02:45:58;;;;;;;0.50;0.40;;;14.00;99.90;;;;;;5046334;28;20032;-50
2023/08/16 02:48:23;;;;;;;0.40;0.32;;;14.00;99.90;;;;;;5047169;28;20043;-50
2023/08/16 02:50:49;;;;;;;0.30;0.30;;;14.00;99.90;;;;;;5040703;28;20860;-56
2023/08/16 02:53:16;;;;;;;0.50;0.40;;;14.00;99.90;;;;;;5046345;28;20043;-52
2023/08/16 02:55:42;;;;;;;1.02;0.50;;;14.00;99.90;;;;;;5046274;28;20083;-50
2023/08/16 02:58:07;;;;;;;0.47;0.47;;;14.10;99.90;;;;;;5047382;28;20048;-51
2023/08/16 03:00:33;;;;;;;0.43;0.40;;;14.10;99.90;;;;;;5049294;28;20040;-55
2023/08/16 03:02:59;;;;;;;0.57;0.50;;;14.20;99.90;;;;;;5048485;28;20028;-50
2023/08/16 03:05:24;;;;;;;1.23;0.40;;;14.20;99.90;;;;;;5048590;28;20354;-50
2023/08/16 03:07:50;;;;;;;3.67;0.55;;;14.20;99.90;;;;;;5048495;28;20037;-54
2023/08/16 03:10:15;;;;;;;2.60;1.05;;;14.20;99.90;;;;;;5047919;28;20033;-50
2023/08/16 03:12:41;;;;;;;2.35;0.52;;;14.20;99.90;;;;;;5048165;28;20123;-52
2023/08/16 03:15:07;;;;;;;2.15;0.80;;;14.20;99.90;;;;;;5048324;28;20033;-51
2023/08/16 03:17:33;;;;;;;1.45;1.02;;;14.30;99.90;;;;;;5048510;28;20044;-51
2023/08/16 03:19:59;;;;;;;1.15;1.05;;;14.20;99.90;;;;;;5047498;28;20041;-54
2023/08/16 03:22:24;;;;;;;2.15;0.70;;;14.20;99.90;;;;;;5048219;28;20056;-53
2023/08/16 03:24:50;;;;;;;0.60;0.40;;;14.20;99.90;;;;;;5047877;28;20035;-58
2023/08/16 03:27:16;;;;;;;0.32;0.30;;;14.20;99.90;;;;;;5047992;28;20095;-51
2023/08/16 03:29:41;;;;;;;2.58;1.10;;;14.10;99.90;;;;;;5047403;28;20429;-56
2023/08/16 03:32:07;;;;;;;1.42;1.00;;;14.10;99.90;;;;;;5048156;28;20534;-53
2023/08/16 03:34:33;;;;;;;2.10;0.90;;;14.00;99.90;;;;;;5048132;28;20124;-54
2023/08/16 03:36:58;;;;;;;0.90;0.63;;;14.00;99.90;;;;;;5048312;28;20037;-51
2023/08/16 03:39:24;;;;;;;1.75;1.17;;;14.00;99.90;;;;;;5047144;28;20510;-53
2023/08/16 03:41:50;;;;;;;0.80;0.70;;;14.00;99.90;;;;;;5048059;28;20037;-54
2023/08/16 03:44:15;;;;;;;1.27;1.17;;;14.00;99.90;;;;;;5047540;28;20040;-54
2023/08/16 03:46:41;;;;;;;0.80;0.73;;;14.00;99.90;;;;;;5047645;28;20029;-50
2023/08/16 03:49:07;;;;;;;0.70;0.70;;;14.10;99.90;;;;;;5047514;28;20036;-50
2023/08/16 03:51:33;;;;;;;4.63;1.20;;;14.00;99.90;;;;;;5043523;28;20505;-51
2023/08/16 03:53:58;;;;;;;0.80;0.80;;;14.00;99.90;;;;;;5029370;28;20053;-54
2023/08/16 03:56:24;;;;;;;1.13;1.10;;;13.90;99.90;;;;;;5047868;28;20033;-55
2023/08/16 03:58:50;;;;;;;0.47;0.40;;;13.80;99.90;;;;;;5049611;28;20090;-56
2023/08/16 04:01:16;;;;;;;0.90;0.60;;;13.80;99.90;;;;;;5052616;28;20131;-52
2023/08/16 04:03:42;;;;;;;1.08;0.35;;;13.80;99.90;;;;;;5052249;28;20115;-54
2023/08/16 04:06:11;;;;;;;1.40;0.40;;;13.80;99.90;;;;;;5051844;28;20490;-56
2023/08/16 04:08:41;;;;;;;0.30;0.30;;;13.70;99.90;;;;;;5050922;28;20044;-56
2023/08/16 04:11:07;;;;;;;0.63;0.30;;;13.60;99.90;;;;;;5051624;28;20041;-54
2023/08/16 04:13:33;;;;;;;1.75;0.20;;;13.60;99.90;;;;;;5051883;28;20068;-56
2023/08/16 04:15:58;;;;;;;16.20;1.02;;;13.50;99.90;;;;;;5051830;28;20033;-52
2023/08/16 04:18:25;;;;;;;2.58;0.80;;;13.50;99.90;;;;;;5050886;28;20041;-54
2023/08/16 04:20:51;;;;;;;1.10;0.90;;;13.50;99.90;;;;;;5051818;28;20297;-54
2023/08/16 04:23:17;;;;;;;2.42;0.73;;;13.40;99.90;;;;;;5049621;28;20143;-54
2023/08/16 04:25:42;;;;;;;1.10;1.00;;;13.40;99.90;;;;;;5052002;28;20105;-52
2023/08/16 04:28:08;;;;;;;1.13;0.80;;;13.40;99.90;;;;;;5050343;28;20573;-51
2023/08/16 04:30:34;;;;;;;1.52;1.15;;;13.40;99.90;;;;;;5033775;28;20063;-51
2023/08/16 04:33:00;;;;;;;;;;;13.40;99.90;;;;;;5051530;28;20502;-53
2023/08/16 04:35:25;;;;;;;1.45;1.17;;;13.50;99.90;;;;;;5051485;28;19923;-51
2023/08/16 04:37:51;;;;;;;1.50;1.25;;;13.50;99.90;;;;;;5050574;28;20041;-57
2023/08/16 04:40:17;;;;;;;3.78;1.10;;;13.60;99.90;;;;;;5051166;28;20041;-56
2023/08/16 04:42:42;;;;;;;1.83;1.73;;;13.60;99.90;;;;;;5051215;28;20425;-56
2023/08/16 04:45:08;;;;;;;2.53;1.08;;;13.70;99.90;;;;;;5050693;28;20086;-50
2023/08/16 04:47:34;;;;;;;2.17;1.33;;;13.80;99.90;;;;;;5033345;28;20082;-50
2023/08/16 04:50:03;;;;;;;0.80;0.80;;;13.80;99.90;;;;;;5050167;28;20478;-51
2023/08/16 04:52:28;;;;;;;3.53;0.95;;;13.80;99.90;;;;;;5046071;28;20041;-51
2023/08/16 04:54:54;;;;;;;2.28;1.10;;;13.90;99.90;;;;;;5051101;28;20052;-50
2023/08/16 04:57:20;;;;;;;0.90;0.77;;;13.90;99.90;;;;;;5051072;28;20035;-58
2023/08/16 04:59:45;;;;;;;0.93;0.90;;;13.90;99.90;;;;;;5050252;28;20037;-53
2023/08/16 05:02:11;;;;;;;2.05;1.20;;;13.90;99.90;;;;;;5050946;28;20413;-50
2023/08/16 05:04:36;;;;;;;1.88;1.10;;;14.00;99.90;;;;;;5049963;28;20048;-50
2023/08/16 05:07:02;;;;;;;4.15;2.00;;;14.00;99.90;;;;;;5050192;28;20041;-53
2023/08/16 05:09:27;;;;;;;5.90;3.42;;;14.00;99.90;;;;;;5049662;28;20076;-50
2023/08/16 05:11:53;;;;;;;10.43;6.53;;;14.10;99.90;;;;;;5050780;28;20255;-53
2023/08/16 05:14:19;;;;;;;11.15;5.60;;;14.20;99.90;;;;;;5050602;28;20068;-51
2023/08/16 05:16:45;;;;;;;11.77;7.93;;;14.30;99.90;;;;;;5050675;28;20045;-54
2023/08/16 05:19:10;;;;;;;7.78;6.85;;;14.40;99.90;;;;;;5049857;28;20041;-53
2023/08/16 05:21:36;;;;;;;7.15;6.45;;;14.50;99.90;;;;;;5050412;28;20497;-51
2023/08/16 05:24:01;;;;;;;9.48;7.15;;;14.60;99.90;;;;;;5050190;28;20041;-52
2023/08/16 05:26:27;;;;;;;11.18;8.52;;;14.70;99.90;;;;;;5050507;28;20478;-55
2023/08/16 05:28:52;;;;;;;9.23;7.45;;;14.70;99.90;;;;;;5049426;28;20048;-58
2023/08/16 05:31:18;;;;;;;9.43;8.48;;;14.80;99.90;;;;;;5050522;28;20041;-57
2023/08/16 05:33:44;;;;;;;10.32;7.00;;;14.90;99.90;;;;;;5050216;28;20075;-56
2023/08/16 05:36:09;;;;;;;30.48;7.65;;;14.90;99.90;;;;;;5049885;28;20486;-58
2023/08/16 05:38:35;;;;;;;7.20;6.60;;;15.00;99.90;;;;;;5049667;28;20651;-56
2023/08/16 05:41:03;;;;;;;7.75;7.03;;;15.10;99.90;;;;;;5050340;28;20514;-55
2023/08/16 05:43:29;;;;;;;7.53;6.82;;;15.10;99.90;;;;;;5049996;28;20155;-54
2023/08/16 05:45:54;;;;;;;9.20;6.95;;;15.10;99.90;;;;;;5050078;28;20123;-52
2023/08/16 05:48:20;;;;;;;7.53;6.68;;;15.10;99.90;;;;;;5047451;28;20052;-56
2023/08/16 05:50:45;;;;;;;7.85;6.30;;;15.10;99.90;;;;;;5045892;28;20044;-57
2023/08/16 05:53:11;;;;;;;7.72;6.80;;;15.10;99.90;;;;;;5032259;28;20174;-55
2023/08/16 05:55:37;;;;;;;10.70;6.65;;;15.10;99.90;;;;;;5050418;28;20036;-51
2023/08/16 05:58:04;;;;;;;12.70;6.85;;;15.10;99.90;;;;;;5045731;28;20049;-52
2023/08/16 06:00:29;;;;;;;7.57;6.82;;;15.20;99.90;;;;;;5050353;28;20473;-54
2023/08/16 06:02:55;;;;;;;8.90;7.03;;;15.30;99.90;;;;;;5047695;28;20115;-55
2023/08/16 06:05:20;;;;;;;10.00;8.77;;;15.40;99.90;;;;;;5046814;28;20032;-56
2023/08/16 06:07:46;;;;;;;10.48;7.10;;;15.60;99.90;;;;;;5047935;28;20037;-55
2023/08/16 06:10:12;;;;;;;10.45;8.13;;;15.70;99.90;;;;;;5049017;28;20037;-51
2023/08/16 06:12:37;;;;;;;8.00;7.25;;;15.80;99.90;;;;;;5012611;28;20041;-52
2023/08/16 06:15:04;;;;;;;9.02;7.50;;;16.00;99.90;;;;;;5048957;28;20043;-54
2023/08/16 06:17:29;;;;;;;16.40;7.95;;;16.10;99.90;;;;;;5050015;28;20040;-54
2023/08/16 06:19:56;;;;;;;11.00;7.90;;;16.20;99.90;;;;;;5048515;28;20494;-54
2023/08/16 06:22:22;;;;;;;9.23;8.15;;;16.30;99.90;;;;;;5049118;28;20478;-50
2023/08/16 06:24:47;;;;;;;9.50;7.72;;;16.40;99.90;;;;;;5049383;28;20061;-54
2023/08/16 06:27:13;;;;;;;9.88;8.98;;;16.40;99.90;;;;;;5049436;28;20516;-51
2023/08/16 06:29:38;;;;;;;10.18;8.60;;;16.50;99.90;;;;;;5048779;28;20123;-55
2023/08/16 06:32:04;;;;;;;9.40;7.70;;;16.50;99.90;;;;;;5049477;28;20029;-54
2023/08/16 06:34:30;;;;;;;;;;;16.50;99.90;;;;;;5049782;28;20098;-52
2023/08/16 06:36:56;;;;;;;9.73;7.82;;;16.60;99.90;;;;;;5048068;28;20425;-54
2023/08/16 06:39:21;;;;;;;9.00;7.95;;;16.70;99.90;;;;;;5043677;28;20033;-51
2023/08/16 06:41:48;;;;;;;12.65;8.88;;;16.80;99.90;;;;;;5049117;28;20040;-53
2023/08/16 06:44:13;;;;;;;;;;;16.80;99.90;;;;;;5026981;28;20040;-51
2023/08/16 06:46:39;;;;;;;10.25;7.97;;;16.80;99.90;;;;;;5044104;28;19917;-51
2023/08/16 06:49:05;;;;;;;9.95;8.05;;;16.80;99.90;;;;;;5043236;28;20437;-50
2023/08/16 06:51:33;;;;;;;9.35;6.43;;;16.90;99.90;;;;;;5043056;28;20148;-50
2023/08/16 06:53:59;;;;;;;8.25;6.55;;;17.00;99.90;;;;;;5040354;28;20047;-53
2023/08/16 06:56:24;;;;;;;8.38;7.00;;;17.10;99.90;;;;;;5044420;28;20116;-55
2023/08/16 06:58:51;;;;;;;8.23;7.43;;;17.20;99.90;;;;;;5045058;28;20094;-50
2023/08/16 07:01:16;;;;;;;16.10;8.20;;;17.30;99.90;;;;;;5048737;28;20494;-50
2023/08/16 07:03:42;;;;;;;10.75;8.38;;;17.50;99.90;;;;;;5040749;28;20061;-54
2023/08/16 07:06:08;;;;;;;8.75;7.32;;;17.60;99.90;;;;;;5049035;28;20414;-50
2023/08/16 07:08:34;;;;;;;12.15;8.15;;;17.80;99.90;;;;;;5045359;28;20040;-54
2023/08/16 07:11:00;;;;;;;;;;;17.90;99.90;;;;;;5043644;28;20045;-52
2023/08/16 07:13:25;;;;;;;11.73;8.38;;;18.10;99.90;;;;;;5048328;28;20435;-52
2023/08/16 07:15:51;;;;;;;22.30;8.82;;;18.20;99.90;;;;;;5048174;28;20044;-55
2023/08/16 07:18:16;;;;;;;9.38;8.55;;;18.30;99.90;;;;;;5044869;28;20033;-56
2023/08/16 07:20:43;;;;;;;10.85;6.68;;;18.40;99.90;;;;;;5041248;28;20071;-58
2023/08/16 07:23:09;;;;;;;15.90;7.90;;;18.40;99.90;;;;;;5042362;28;20441;-56
2023/08/16 07:25:34;;;;;;;10.38;6.32;;;18.30;99.90;;;;;;5033384;28;20033;-56
2023/08/16 07:28:00;;;;;;;14.52;7.97;;;18.40;99.90;;;;;;5038290;28;20482;-56
2023/08/16 07:30:26;;;;;;;10.70;7.60;;;18.40;99.90;;;;;;5040450;28;20386;-57
2023/08/16 07:32:51;;;;;;;16.15;7.20;;;18.40;99.90;;;;;;5041771;28;20498;-56
2023/08/16 07:35:17;;;;;;;9.95;6.57;;;18.40;99.90;;;;;;5042860;28;20387;-54
2023/08/16 07:37:43;;;;;;;11.10;6.90;;;18.40;99.90;;;;;;5042983;28;20404;-57
2023/08/16 07:40:10;;;;;;;9.63;6.80;;;18.40;99.90;;;;;;5041435;28;20127;-54
2023/08/16 07:42:36;;;;;;;11.60;7.50;;;18.40;99.90;;;;;;5043038;28;20032;-54
2023/08/16 07:45:03;;;;;;;9.00;5.85;;;18.50;99.90;;;;;;5040980;28;20032;-53
2023/08/16 07:47:28;;;;;;;13.50;6.65;;;18.60;99.90;;;;;;5043169;28;21985;-51
2023/08/16 07:49:54;;;;;;;8.82;5.20;;;18.60;99.90;;;;;;5041912;28;20384;-51
2023/08/16 07:52:20;;;;;;;8.02;5.25;;;18.70;99.90;;;;;;5025468;28;20498;-53
2023/08/16 07:54:46;;;;;;;;;;;18.70;99.90;;;;;;5040791;28;20037;-57
2023/08/16 07:57:12;;;;;;;9.25;5.50;;;18.90;99.90;;;;;;5042696;28;19927;-58
2023/08/16 07:59:39;;;;;;;9.77;5.95;;;19.10;99.90;;;;;;5041892;28;20550;-51
2023/08/16 08:02:06;;;;;;;8.20;5.85;;;19.20;99.90;;;;;;5042782;28;20040;-51
2023/08/16 08:04:35;;;;;;;8.85;5.32;;;19.40;99.90;;;;;;5042139;28;20615;-53
2023/08/16 08:07:01;;;;;;;9.02;5.90;;;19.50;99.90;;;;;;5035444;28;20041;-50
2023/08/16 08:09:27;;;;;;;11.50;6.00;;;19.70;99.90;;;;;;5042474;28;20037;-51
2023/08/16 08:11:53;;;;;;;7.15;4.72;;;19.70;99.90;;;;;;5042705;28;20051;-52
2023/08/16 08:14:18;;;;;;;9.90;4.50;;;19.70;99.90;;;;;;5041739;28;20044;-53
2023/08/16 08:16:44;;;;;;;7.88;4.40;;;19.80;99.90;;;;;;5041908;28;20044;-58
2023/08/16 08:19:10;;;;;;;10.02;4.35;;;19.90;99.90;;;;;;5039652;28;20033;-51
2023/08/16 08:21:35;;;;;;;5.25;4.28;;;20.00;99.90;;;;;;5041117;28;20086;-50
2023/08/16 08:24:01;;;;;;;8.93;5.13;;;20.10;99.90;;;;;;5020712;28;20036;-54
2023/08/16 08:26:26;;;;;;;;;;;20.00;99.90;;;;;;5043136;28;20457;-54
2023/08/16 08:28:52;;;;;;;7.72;4.13;;;20.00;99.90;;;;;;5040631;28;19920;-58
2023/08/16 08:31:18;;;;;;;;;;;20.10;99.90;;;;;;5041430;28;20421;-54
2023/08/16 08:33:45;;;;;;;7.72;3.20;;;20.20;99.90;;;;;;5042003;28;19920;-50
2023/08/16 08:36:11;;;;;;;6.32;2.33;;;20.30;99.90;;;;;;5041173;28;20665;-54
2023/08/16 08:38:37;;;;;;;8.55;2.30;;;20.40;99.90;;;;;;5038777;28;20045;-54
2023/08/16 08:41:03;;;;;;;6.97;1.67;;;20.50;99.90;;;;;;5040177;28;20041;-57
2023/08/16 08:43:37;;;;;;;9.77;2.05;;;20.60;99.90;;;;;;5040117;28;20048;-50
2023/08/16 08:46:06;;;;;;;2.58;1.55;;;20.70;99.90;;;;;;5044666;28;20041;-55
2023/08/16 08:48:32;;;;;;;3.55;1.90;;;20.80;99.90;;;;;;5044599;28;20036;-57
2023/08/16 08:50:58;;;;;;;4.18;1.77;;;21.00;99.90;;;;;;5045068;28;20082;-52
2023/08/16 08:53:25;;;;;;;5.25;2.03;;;21.00;99.90;;;;;;5045964;28;20086;-51
2023/08/16 08:55:56;;;;;;;1.70;1.02;;;21.10;99.90;;;;;;5043928;28;20029;-56
2023/08/16 08:58:24;;;;;;;5.38;0.98;;;21.00;99.90;;;;;;5044039;28;20490;-54
2023/08/16 09:00:51;;;;;;;1.85;0.98;;;21.00;99.90;;;;;;5042954;28;20064;-51
2023/08/16 09:03:18;;;;;;;2.67;1.00;;;21.10;99.90;;;;;;5044712;28;20043;-50
2023/08/16 09:05:52;;;;;;;4.80;0.95;;;21.10;99.90;;;;;;5044629;28;20060;-51
2023/08/16 09:08:20;;;;;;;3.58;1.80;;;21.30;99.90;;;;;;5044104;28;20045;-51
2023/08/16 09:10:46;;;;;;;4.20;1.20;;;21.40;99.90;;;;;;5045487;28;20037;-52
2023/08/16 09:13:12;;;;;;;;;;;21.50;99.90;;;;;;5040412;28;20068;-51
2023/08/16 09:15:38;;;;;;;2.10;0.80;;;21.60;99.90;;;;;;5044194;28;19955;-58
2023/08/16 09:18:12;;;;;;;2.75;0.80;;;21.70;99.90;;;;;;5042060;28;20037;-51
2023/08/16 09:20:38;;;;;;;2.60;1.13;;;21.80;99.90;;;;;;5042677;28;20033;-54
2023/08/16 09:23:04;;;;;;;3.55;0.88;;;21.80;99.90;;;;;;5038687;28;20140;-57
2023/08/16 09:25:31;;;;;;;2.35;0.60;;;21.90;99.90;;;;;;5043965;28;20033;-53
2023/08/16 09:27:56;;;;;;;;;;;21.90;99.90;;;;;;5043002;28;20033;-55
2023/08/16 09:30:26;;;;;;;6.53;0.77;;;22.00;99.90;;;;;;5041007;28;19924;-54
2023/08/16 09:32:55;;;;;;;2.53;0.50;;;22.00;99.90;;;;;;5039584;28;20128;-59
2023/08/16 09:35:29;;;;;;;3.35;0.85;;;22.00;99.90;;;;;;5040622;28;20487;-54
2023/08/16 09:37:58;;;;;;;2.03;0.50;;;22.10;99.90;;;;;;5043094;28;20136;-57
2023/08/16 09:40:24;;;;;;;1.70;0.40;;;22.20;99.90;;;;;;5024724;28;20132;-59
2023/08/16 09:42:50;;;;;;;;;;;22.30;99.90;;;;;;5044745;28;20032;-54
2023/08/16 09:45:25;;;;;;;5.68;0.60;;;22.40;99.90;;;;;;5043140;28;19921;-52
2023/08/16 09:47:51;;;;;;;1.77;0.30;;;22.60;99.90;;;;;;5042604;28;20032;-59
2023/08/16 09:50:21;;;;;;;1.15;0.40;;;22.70;99.90;;;;;;5042659;28;20572;-55
2023/08/16 09:52:50;;;;;;;1.90;0.57;;;22.80;99.90;;;;;;5025939;28;20586;-57
2023/08/16 09:55:43;;;;;;;3.22;0.22;;;22.90;99.90;;;;;;5039829;28;20213;-59
2023/08/16 09:58:11;;;;;;;1.95;0.20;;;23.10;99.90;;;;;;5039978;28;20532;-57
2023/08/16 10:00:37;;;;;;;2.15;0.50;;;23.20;99.90;;;;;;5043416;28;20028;-54
2023/08/16 10:03:04;;;;;;;1.52;0.40;;;23.30;99.90;;;;;;5044503;28;20527;-57
2023/08/16 10:05:30;;;;;;;2.20;0.65;;;23.40;99.90;;;;;;5044517;28;20033;-57
2023/08/16 10:07:59;;;;;;;;;;;23.50;99.90;;;;;;5043883;28;20260;-59
2023/08/16 10:10:25;;;;;;;2.13;0.50;;;23.60;99.90;;;;;;5043010;28;19917;-55
2023/08/16 10:12:53;;;;;;;1.15;0.30;;;23.70;99.90;;;;;;5026285;28;20476;-57
2023/08/16 10:15:19;;;;;;;4.63;0.40;;;23.70;99.90;;;;;;5043423;28;20502;-57
2023/08/16 10:17:48;;;;;;;2.28;0.30;;;23.70;99.90;;;;;;5040771;28;20088;-59
2023/08/16 10:20:21;;;;;;;3.75;0.30;;;23.60;99.90;;;;;;5024359;28;20075;-55
2023/08/16 10:22:50;;;;;;;0.90;0.30;;;23.60;99.90;;;;;;5024391;28;20041;-59
2023/08/16 10:25:23;;;;;;;1.20;0.45;;;23.50;99.90;;;;;;5042223;28;20472;-54
2023/08/16 10:27:50;;;;;;;2.72;0.98;;;23.50;99.90;;;;;;5042166;28;20128;-56
2023/08/16 10:30:21;;;;;;;2.80;0.68;;;23.60;99.90;;;;;;5042197;28;20044;-53
2023/08/16 10:32:51;;;;;;;2.75;0.63;;;23.60;99.90;;;;;;5025238;28;20422;-57
2023/08/16 10:35:17;;;;;;;4.72;1.00;;;23.70;99.90;;;;;;5042037;28;20084;-55
2023/08/16 10:37:46;;;;;;;2.28;0.50;;;23.80;99.90;;;;;;5042420;28;20469;-56
2023/08/16 10:40:19;;;;;;;1.67;0.50;;;23.90;99.90;;;;;;5042623;28;20561;-59
2023/08/16 10:43:08;;;;;;;2.20;0.60;;;24.00;99.90;;;;;;5036373;28;20544;-58
2023/08/16 10:45:34;;;;;;;2.75;0.50;;;24.00;99.90;;;;;;5036145;28;20661;-53
2023/08/16 10:48:18;;;;;;;2.35;0.75;;;24.00;99.90;;;;;;5038885;28;20173;-55
2023/08/16 10:50:50;;;;;;;7.78;1.15;;;24.00;99.90;;;;;;5040078;28;20048;-57
2023/08/16 10:53:18;;;;;;;2.65;0.77;;;24.00;99.90;;;;;;5039510;28;20041;-59
2023/08/16 10:55:52;;;;;;;3.33;0.68;;;24.00;99.90;;;;;;5039816;28;20457;-58
2023/08/16 10:58:24;;;;;;;2.40;0.73;;;24.10;99.90;;;;;;5041031;28;20041;-55
2023/08/16 11:00:58;;;;;;;3.88;0.57;;;24.00;99.90;;;;;;5042477;28;20041;-56
2023/08/16 11:03:33;;;;;;;3.13;0.82;;;24.00;99.90;;;;;;5038117;28;20099;-58
2023/08/16 11:06:12;;;;;;;7.75;0.65;;;24.00;99.90;;;;;;5038452;28;20402;-56
2023/08/16 11:08:42;;;;;;;1.58;0.70;;;24.00;99.90;;;;;;5039393;28;20048;-60
2023/08/16 11:11:08;;;;;;;0.90;0.55;;;24.00;99.90;;;;;;5036188;28;20055;-58
2023/08/16 11:13:34;;;;;;;2.55;0.40;;;23.90;99.90;;;;;;5038415;28;20044;-55
2023/08/16 11:16:00;;;;;;;3.50;0.52;;;24.00;99.90;;;;;;5036328;28;20457;-56
2023/08/16 11:18:32;;;;;;;3.25;0.60;;;24.00;99.90;;;;;;5021521;28;20116;-61
2023/08/16 11:20:59;;;;;;;3.15;0.93;;;24.10;99.90;;;;;;5037548;28;20760;-57
2023/08/16 11:23:39;;;;;;;4.88;0.60;;;24.10;99.90;;;;;;5022712;28;20049;-54
2023/08/16 11:26:07;;;;;;;5.25;0.60;;;24.20;99.90;;;;;;5023212;28;20041;-53
2023/08/16 11:28:34;;;;;;;2.22;0.88;;;24.40;99.90;;;;;;5038241;28;20040;-56
2023/08/16 11:31:01;;;;;;;2.03;0.70;;;24.60;99.90;;;;;;5039104;28;20041;-57
2023/08/16 11:33:39;;;;;;;3.83;0.50;;;24.80;99.90;;;;;;5043604;28;20033;-59
2023/08/16 11:36:08;;;;;;;2.22;0.88;;;25.00;99.90;;;;;;5042367;28;20033;-56
2023/08/16 11:38:34;;;;;;;2.75;0.52;;;25.20;99.90;;;;;;5042264;28;20044;-57
2023/08/16 11:41:01;;;;;;;3.80;1.02;;;25.30;99.90;;;;;;5040243;28;20116;-54
2023/08/16 11:43:28;;;;;;;2.13;0.75;;;25.40;99.90;;;;;;5042628;28;20033;-56
2023/08/16 11:45:54;;;;;;;2.78;0.73;;;25.40;99.90;;;;;;5024687;28;20478;-55
2023/08/16 11:48:20;;;;;;;2.65;0.85;;;25.30;99.90;;;;;;5041557;28;20175;-60
2023/08/16 11:50:46;;;;;;;2.40;0.60;;;25.20;99.90;;;;;;5041834;28;20033;-58
2023/08/16 11:53:16;;;;;;;3.38;1.10;;;25.10;99.90;;;;;;5024048;28;20867;-56
2023/08/16 11:55:42;;;;;;;4.90;1.17;;;25.20;99.90;;;;;;5035150;28;20083;-53
2023/08/16 11:58:11;;;;;;;0.80;0.35;;;25.30;99.90;;;;;;5041738;28;20082;-60
2023/08/16 12:00:38;;;;;;;2.78;0.88;;;25.40;99.90;;;;;;5040726;28;20048;-57
2023/08/16 12:03:05;;;;;;;2.33;0.60;;;25.50;99.90;;;;;;5041659;28;20048;-58
2023/08/16 12:05:35;;;;;;;1.30;0.57;;;25.60;99.90;;;;;;5040845;28;20495;-56
2023/08/16 12:08:04;;;;;;;0.88;0.45;;;25.60;99.80;;;;;;5039774;28;20076;-57
2023/08/16 12:10:32;;;;;;;1.48;0.73;;;25.50;99.80;;;;;;5039704;28;20052;-58
2023/08/16 12:12:58;;;;;;;2.65;0.43;;;25.40;99.60;;;;;;5022448;28;20509;-56
2023/08/16 12:15:28;;;;;;;1.88;0.55;;;25.40;99.80;;;;;;5040402;28;20156;-61
2023/08/16 12:17:55;;;;;;;2.10;0.50;;;25.50;99.50;;;;;;5037583;28;20049;-59
2023/08/16 12:20:24;;;;;;;3.58;0.75;;;25.60;99.80;;;;;;5044922;28;20045;-57
2023/08/16 12:22:54;;;;;;;8.20;0.50;;;25.60;99.90;;;;;;5041946;28;20067;-59
2023/08/16 12:25:20;;;;;;;1.15;0.40;;;25.80;99.90;;;;;;5026054;28;20037;-55
2023/08/16 12:27:45;;;;;;;3.13;0.40;;;25.80;99.40;;;;;;5043637;28;20395;-56
2023/08/16 12:30:11;;;;;;;2.58;0.50;;;25.80;99.10;;;;;;5045562;28;20076;-57
2023/08/16 12:32:37;;;;;;;2.10;0.40;;;25.70;98.60;;;;;;5026630;28;20056;-59
2023/08/16 12:35:03;;;;;;;2.92;0.43;;;25.70;99.10;;;;;;5044846;28;20048;-56
2023/08/16 12:37:28;;;;;;;3.92;0.68;;;25.80;99.00;;;;;;5043453;28;20033;-58
2023/08/16 12:39:54;;;;;;;2.55;0.70;;;25.90;99.10;;;;;;5045211;28;20391;-55
2023/08/16 12:42:20;;;;;;;1.58;0.50;;;25.90;98.90;;;;;;5027816;28;20048;-56
2023/08/16 12:44:45;;;;;;;1.45;0.50;;;25.90;98.80;;;;;;5026901;28;20683;-59
2023/08/16 12:47:11;;;;;;;2.42;0.40;;;25.90;99.00;;;;;;5043186;28;20045;-60
2023/08/16 12:49:36;;;;;;;2.90;0.52;;;25.90;99.20;;;;;;5040532;28;20037;-57